createdAt,value
2019-01-15T00:00:00.927Z,2.36
2019-01-15T00:00:05.232Z,2.35
2019-01-15T00:00:09.433Z,2.36
2019-01-15T00:00:13.629Z,2.36
2019-01-15T00:00:17.930Z,2.36
2019-01-15T00:00:22.124Z,2.36
2019-01-15T00:00:26.326Z,2.37
2019-01-15T00:00:30.615Z,2.37
2019-01-15T00:00:34.907Z,2.37
2019-01-15T00:00:39.121Z,2.36
2019-01-15T00:00:43.408Z,2.37
2019-01-15T00:00:47.698Z,2.38
2019-01-15T00:00:51.986Z,2.39
2019-01-15T00:00:56.276Z,2.38
2019-01-15T00:01:00.584Z,2.38
2019-01-15T00:01:04.901Z,2.39
2019-01-15T00:01:10.895Z,2.39
2019-01-15T00:01:15.214Z,2.39
2019-01-15T00:01:19.519Z,2.39
2019-01-15T00:01:23.717Z,2.4
2019-01-15T00:01:28.018Z,2.39
2019-01-15T00:01:32.315Z,2.4
2019-01-15T00:01:36.608Z,2.4
2019-01-15T00:01:40.811Z,2.41
2019-01-15T00:01:45.099Z,2.4
2019-01-15T00:01:49.394Z,2.41
2019-01-15T00:01:53.589Z,2.4
2019-01-15T00:01:57.877Z,2.41
2019-01-15T00:02:02.072Z,2.4
2019-01-15T00:02:06.370Z,2.4
2019-01-15T00:02:10.672Z,2.41
2019-01-15T00:02:14.969Z,2.41
2019-01-15T00:02:19.263Z,2.4
2019-01-15T00:02:23.552Z,2.4
2019-01-15T00:02:27.767Z,2.4
2019-01-15T00:02:32.069Z,2.41
2019-01-15T00:02:36.365Z,2.41
2019-01-15T00:02:40.563Z,2.42
2019-01-15T00:02:44.863Z,2.41
2019-01-15T00:02:49.061Z,2.41
2019-01-15T00:02:53.267Z,2.41
2019-01-15T00:02:57.565Z,2.4
2019-01-15T00:03:01.872Z,2.4
2019-01-15T00:03:06.173Z,2.4
2019-01-15T00:03:10.467Z,2.41
2019-01-15T00:03:14.763Z,2.41
2019-01-15T00:03:19.054Z,2.4
2019-01-15T00:03:23.249Z,2.4
2019-01-15T00:03:27.553Z,2.4
2019-01-15T00:03:31.840Z,2.43
2019-01-15T00:03:36.143Z,2.41
2019-01-15T00:03:40.431Z,2.42
2019-01-15T00:03:44.723Z,2.42
2019-01-15T00:03:49.006Z,2.42
2019-01-15T00:03:53.303Z,2.43
2019-01-15T00:03:57.598Z,2.42
2019-01-15T00:04:01.697Z,2.42
2019-01-15T00:04:06.006Z,2.42
2019-01-15T00:04:10.206Z,2.43
2019-01-15T00:04:14.512Z,2.43
2019-01-15T00:04:18.806Z,2.42
2019-01-15T00:04:23.096Z,2.42
2019-01-15T00:04:27.284Z,2.42
2019-01-15T00:04:31.484Z,2.42
2019-01-15T00:04:35.677Z,2.42
2019-01-15T00:04:39.978Z,2.42
2019-01-15T00:04:44.275Z,2.41
2019-01-15T00:04:48.483Z,2.43
2019-01-15T00:04:52.688Z,2.42
2019-01-15T00:04:56.883Z,2.42
2019-01-15T00:05:01.209Z,2.42
2019-01-15T00:05:05.625Z,2.42
2019-01-15T00:05:09.725Z,2.42
2019-01-15T00:05:14.023Z,2.41
2019-01-15T00:05:18.321Z,2.42
2019-01-15T00:05:22.676Z,2.41
2019-01-15T00:05:26.975Z,2.42
2019-01-15T00:05:31.172Z,2.42
2019-01-15T00:05:35.463Z,2.41
2019-01-15T00:05:39.757Z,2.42
2019-01-15T00:05:44.042Z,2.41
2019-01-15T00:05:48.341Z,2.41
2019-01-15T00:05:52.641Z,2.42
2019-01-15T00:05:56.940Z,2.42
2019-01-15T00:06:01.139Z,2.42
2019-01-15T00:06:05.428Z,2.42
2019-01-15T00:06:09.726Z,2.43
2019-01-15T00:06:13.932Z,2.43
2019-01-15T00:06:18.234Z,2.42
2019-01-15T00:06:22.526Z,2.43
2019-01-15T00:06:26.870Z,2.42
2019-01-15T00:06:31.162Z,2.42
2019-01-15T00:06:35.451Z,2.42
2019-01-15T00:06:39.751Z,2.41
2019-01-15T00:06:44.049Z,2.42
2019-01-15T00:06:48.245Z,2.43
2019-01-15T00:06:52.437Z,2.42
2019-01-15T00:06:56.631Z,2.42
2019-01-15T00:07:00.921Z,2.43
2019-01-15T00:07:05.311Z,2.42
2019-01-15T00:07:09.606Z,2.41
2019-01-15T00:07:13.902Z,2.41
2019-01-15T00:07:18.191Z,2.43
2019-01-15T00:07:22.479Z,2.42
2019-01-15T00:07:26.778Z,2.42
2019-01-15T00:07:31.081Z,2.42
2019-01-15T00:07:35.372Z,2.42
2019-01-15T00:07:39.665Z,2.42
2019-01-15T00:07:43.957Z,2.43
2019-01-15T00:07:48.253Z,2.43
2019-01-15T00:07:52.549Z,2.43
2019-01-15T00:07:56.844Z,2.43
2019-01-15T00:08:01.145Z,2.43
2019-01-15T00:08:05.389Z,2.42
2019-01-15T00:08:09.684Z,2.43
2019-01-15T00:08:15.370Z,2.44
2019-01-15T00:08:19.681Z,2.43
2019-01-15T00:08:23.881Z,2.44
2019-01-15T00:08:28.186Z,2.44
2019-01-15T00:08:32.483Z,2.43
2019-01-15T00:08:36.781Z,2.44
2019-01-15T00:08:41.091Z,2.44
2019-01-15T00:08:45.286Z,2.43
2019-01-15T00:08:49.580Z,2.44
2019-01-15T00:08:53.868Z,2.43
2019-01-15T00:08:58.064Z,2.44
2019-01-15T00:09:02.453Z,2.43
2019-01-15T00:09:06.744Z,2.42
2019-01-15T00:09:11.047Z,2.43
2019-01-15T00:09:15.349Z,2.42
2019-01-15T00:09:19.652Z,2.42
2019-01-15T00:09:23.946Z,2.41
2019-01-15T00:09:28.243Z,2.41
2019-01-15T00:09:32.440Z,2.41
2019-01-15T00:09:36.635Z,2.42
2019-01-15T00:09:40.920Z,2.41
2019-01-15T00:09:45.223Z,2.41
2019-01-15T00:09:49.533Z,2.4
2019-01-15T00:09:53.841Z,2.41
2019-01-15T00:09:58.127Z,2.41
2019-01-15T00:10:02.633Z,2.41
2019-01-15T00:10:06.928Z,2.41
2019-01-15T00:10:11.225Z,2.41
2019-01-15T00:10:15.519Z,2.41
2019-01-15T00:10:19.814Z,2.4
2019-01-15T00:10:24.118Z,2.41
2019-01-15T00:10:28.475Z,2.41
2019-01-15T00:10:32.791Z,2.41
2019-01-15T00:10:37.115Z,2.41
2019-01-15T00:10:41.412Z,2.4
2019-01-15T00:10:45.701Z,2.41
2019-01-15T00:10:49.930Z,2.42
2019-01-15T00:10:54.221Z,2.42
2019-01-15T00:10:58.413Z,2.42
2019-01-15T00:11:02.656Z,2.41
2019-01-15T00:11:06.854Z,2.41
2019-01-15T00:11:11.149Z,2.42
2019-01-15T00:11:15.445Z,2.42
2019-01-15T00:11:19.743Z,2.41
2019-01-15T00:11:24.040Z,2.41
2019-01-15T00:11:28.236Z,2.41
2019-01-15T00:11:32.530Z,2.42
2019-01-15T00:11:36.823Z,2.41
2019-01-15T00:11:41.014Z,2.42
2019-01-15T00:11:45.311Z,2.41
2019-01-15T00:11:49.507Z,2.42
2019-01-15T00:11:53.792Z,2.41
2019-01-15T00:11:58.011Z,2.41
2019-01-15T00:12:09.301Z,2.4
2019-01-15T00:12:13.592Z,2.39
2019-01-15T00:12:17.886Z,2.4
2019-01-15T00:12:22.172Z,2.4
2019-01-15T00:12:26.466Z,2.4
2019-01-15T00:12:30.758Z,2.4
2019-01-15T00:12:35.051Z,2.41
2019-01-15T00:12:39.355Z,2.4
2019-01-15T00:12:43.641Z,2.4
2019-01-15T00:12:47.955Z,2.4
2019-01-15T00:12:52.237Z,2.4
2019-01-15T00:12:56.529Z,2.41
2019-01-15T00:13:00.823Z,2.4
2019-01-15T00:13:05.117Z,2.39
2019-01-15T00:13:09.418Z,2.4
2019-01-15T00:13:13.706Z,2.41
2019-01-15T00:13:17.896Z,2.41
2019-01-15T00:13:22.092Z,2.42
2019-01-15T00:13:26.298Z,2.41
2019-01-15T00:13:30.599Z,2.41
2019-01-15T00:13:34.944Z,2.43
2019-01-15T00:13:39.236Z,2.42
2019-01-15T00:13:43.534Z,2.43
2019-01-15T00:13:47.824Z,2.43
2019-01-15T00:13:52.120Z,2.42
2019-01-15T00:13:56.420Z,2.43
2019-01-15T00:14:00.709Z,2.43
2019-01-15T00:14:05.013Z,2.42
2019-01-15T00:14:09.304Z,2.42
2019-01-15T00:14:13.598Z,2.42
2019-01-15T00:14:17.887Z,2.43
2019-01-15T00:14:22.078Z,2.43
2019-01-15T00:14:26.433Z,2.42
2019-01-15T00:14:30.628Z,2.42
2019-01-15T00:14:34.921Z,2.42
2019-01-15T03:00:15.715Z,2.7
2019-01-15T03:00:19.925Z,2.7
2019-01-15T03:00:24.228Z,2.71
2019-01-15T03:00:28.526Z,2.7
2019-01-15T03:00:32.726Z,2.7
2019-01-15T03:00:37.045Z,2.71
2019-01-15T03:00:41.419Z,2.71
2019-01-15T03:00:45.618Z,2.71
2019-01-15T03:00:49.829Z,2.73
2019-01-15T03:00:54.130Z,2.72
2019-01-15T03:00:58.428Z,2.71
2019-01-15T03:01:02.738Z,2.71
2019-01-15T03:01:07.056Z,2.71
2019-01-15T03:01:11.371Z,2.72
2019-01-15T03:01:15.602Z,2.71
2019-01-15T03:01:19.904Z,2.71
2019-01-15T03:01:24.201Z,2.72
2019-01-15T03:01:28.505Z,2.73
2019-01-15T03:01:32.623Z,2.72
2019-01-15T03:01:36.939Z,2.73
2019-01-15T03:01:41.231Z,2.71
2019-01-15T03:01:45.544Z,2.71
2019-01-15T03:01:49.871Z,2.7
2019-01-15T03:01:54.074Z,2.7
2019-01-15T03:01:58.292Z,2.69
2019-01-15T03:02:02.624Z,2.69
2019-01-15T03:02:06.962Z,2.69
2019-01-15T03:02:11.272Z,2.68
2019-01-15T03:02:15.536Z,2.69
2019-01-15T03:02:19.743Z,2.69
2019-01-15T03:02:24.049Z,2.69
2019-01-15T03:02:28.466Z,2.69
2019-01-15T03:02:32.672Z,2.68
2019-01-15T03:02:36.949Z,2.69
2019-01-15T03:02:41.252Z,2.69
2019-01-15T03:02:45.555Z,2.68
2019-01-15T03:02:49.768Z,2.69
2019-01-15T03:02:54.069Z,2.69
2019-01-15T03:02:58.376Z,2.67
2019-01-15T03:03:02.596Z,2.67
2019-01-15T03:03:06.790Z,2.67
2019-01-15T03:03:11.005Z,2.68
2019-01-15T03:03:15.314Z,2.67
2019-01-15T03:03:19.616Z,2.67
2019-01-15T03:03:23.831Z,2.67
2019-01-15T03:03:28.027Z,2.68
2019-01-15T03:03:32.238Z,2.68
2019-01-15T03:03:36.448Z,2.67
2019-01-15T03:03:40.464Z,2.67
2019-01-15T03:03:44.845Z,2.66
2019-01-15T03:03:49.148Z,2.67
2019-01-15T03:03:53.456Z,2.66
2019-01-15T03:03:57.771Z,2.67
2019-01-15T03:04:01.878Z,2.67
2019-01-15T03:04:06.187Z,2.67
2019-01-15T03:04:10.500Z,2.67
2019-01-15T03:04:14.527Z,2.67
2019-01-15T03:04:18.827Z,2.67
2019-01-15T03:04:23.030Z,2.67
2019-01-15T03:04:27.245Z,2.67
2019-01-15T03:04:31.456Z,2.67
2019-01-15T03:04:35.757Z,2.67
2019-01-15T03:04:40.053Z,2.68
2019-01-15T03:04:44.062Z,2.67
2019-01-15T03:04:48.265Z,2.68
2019-01-15T03:04:52.551Z,2.69
2019-01-15T03:04:56.743Z,2.68
2019-01-15T03:05:00.938Z,2.69
2019-01-15T03:05:05.245Z,2.68
2019-01-15T03:05:09.343Z,2.69
2019-01-15T03:05:13.642Z,2.69
2019-01-15T03:05:17.949Z,2.7
2019-01-15T03:05:22.192Z,2.69
2019-01-15T03:05:26.406Z,2.69
2019-01-15T03:05:30.717Z,2.68
2019-01-15T03:05:34.916Z,2.69
2019-01-15T03:05:39.127Z,2.71
2019-01-15T03:05:43.425Z,2.71
2019-01-15T03:05:47.734Z,2.71
2019-01-15T03:05:51.997Z,2.71
2019-01-15T03:05:56.304Z,2.71
2019-01-15T03:06:00.660Z,2.73
2019-01-15T03:06:04.951Z,2.72
2019-01-15T03:06:09.151Z,2.72
2019-01-15T03:06:13.365Z,2.73
2019-01-15T03:06:17.672Z,2.72
2019-01-15T03:06:21.982Z,2.73
2019-01-15T03:06:26.180Z,2.73
2019-01-15T03:06:30.394Z,2.73
2019-01-15T03:06:34.701Z,2.72
2019-01-15T03:06:39.033Z,2.74
2019-01-15T03:06:43.250Z,2.74
2019-01-15T03:06:47.457Z,2.74
2019-01-15T03:06:51.771Z,2.74
2019-01-15T03:06:56.074Z,2.74
2019-01-15T03:07:00.374Z,2.74
2019-01-15T03:07:04.589Z,2.75
2019-01-15T03:07:08.980Z,2.75
2019-01-15T03:07:13.207Z,2.76
2019-01-15T03:07:17.508Z,2.75
2019-01-15T03:07:21.707Z,2.76
2019-01-15T03:07:25.912Z,2.76
2019-01-15T03:07:30.212Z,2.75
2019-01-15T03:07:34.523Z,2.76
2019-01-15T03:07:38.717Z,2.76
2019-01-15T03:07:43.028Z,2.76
2019-01-15T03:07:47.344Z,2.77
2019-01-15T03:07:51.571Z,2.77
2019-01-15T03:07:55.586Z,2.76
2019-01-15T03:07:59.901Z,2.76
2019-01-15T03:08:04.104Z,2.76
2019-01-15T03:08:08.392Z,2.76
2019-01-15T03:08:12.706Z,2.77
2019-01-15T03:08:16.919Z,2.76
2019-01-15T03:08:21.209Z,2.77
2019-01-15T03:08:25.414Z,2.76
2019-01-15T03:08:29.777Z,2.77
2019-01-15T03:08:33.882Z,2.76
2019-01-15T03:08:38.179Z,2.77
2019-01-15T03:08:42.372Z,2.76
2019-01-15T03:08:46.702Z,2.77
2019-01-15T03:08:51.001Z,2.78
2019-01-15T03:08:55.114Z,2.77
2019-01-15T03:08:59.351Z,2.77
2019-01-15T03:09:03.667Z,2.77
2019-01-15T03:09:07.887Z,2.79
2019-01-15T03:09:12.102Z,2.77
2019-01-15T03:09:16.302Z,2.78
2019-01-15T03:09:20.509Z,2.78
2019-01-15T03:09:24.717Z,2.79
2019-01-15T03:09:28.819Z,2.79
2019-01-15T03:09:33.145Z,2.78
2019-01-15T03:09:37.451Z,2.79
2019-01-15T03:09:41.559Z,2.79
2019-01-15T03:09:45.762Z,2.79
2019-01-15T03:09:50.062Z,2.79
2019-01-15T03:09:54.265Z,2.8
2019-01-15T03:09:58.566Z,2.79
2019-01-15T03:10:03.017Z,2.79
2019-01-15T03:10:07.328Z,2.79
2019-01-15T03:10:11.630Z,2.81
2019-01-15T03:10:15.935Z,2.8
2019-01-15T03:10:20.145Z,2.8
2019-01-15T03:10:24.259Z,2.8
2019-01-15T03:10:28.365Z,2.81
2019-01-15T03:10:32.676Z,2.8
2019-01-15T03:10:36.988Z,2.81
2019-01-15T03:10:41.184Z,2.81
2019-01-15T03:10:45.303Z,2.82
2019-01-15T03:10:49.405Z,2.82
2019-01-15T03:10:53.608Z,2.81
2019-01-15T03:10:57.863Z,2.81
2019-01-15T03:11:02.177Z,2.82
2019-01-15T03:11:06.490Z,2.81
2019-01-15T03:11:10.786Z,2.82
2019-01-15T03:11:15.169Z,2.83
2019-01-15T03:11:19.516Z,2.82
2019-01-15T03:11:23.846Z,2.83
2019-01-15T03:11:28.107Z,2.83
2019-01-15T03:11:32.312Z,2.83
2019-01-15T03:11:36.613Z,2.84
2019-01-15T03:11:40.732Z,2.82
2019-01-15T03:11:45.026Z,2.84
2019-01-15T03:11:49.368Z,2.83
2019-01-15T03:11:53.683Z,2.84
2019-01-15T03:11:57.785Z,2.84
2019-01-15T03:12:02.197Z,2.85
2019-01-15T03:12:06.418Z,2.84
2019-01-15T03:12:10.741Z,2.84
2019-01-15T03:12:14.941Z,2.85
2019-01-15T03:12:19.152Z,2.84
2019-01-15T03:12:23.352Z,2.84
2019-01-15T03:12:27.659Z,2.86
2019-01-15T03:12:31.989Z,2.86
2019-01-15T03:12:36.296Z,2.85
2019-01-15T03:12:40.601Z,2.86
2019-01-15T03:12:44.801Z,2.84
2019-01-15T03:12:59.157Z,2.82
2019-01-15T03:13:03.474Z,2.8
2019-01-15T03:13:07.689Z,2.79
2019-01-15T03:13:11.996Z,2.79
2019-01-15T03:13:16.300Z,2.78
2019-01-15T03:13:20.599Z,2.78
2019-01-15T03:13:24.910Z,2.77
2019-01-15T03:13:29.137Z,2.77
2019-01-15T03:13:33.395Z,2.76
2019-01-15T03:13:37.698Z,2.77
2019-01-15T03:13:42.059Z,2.76
2019-01-15T03:13:46.273Z,2.76
2019-01-15T03:13:50.476Z,2.75
2019-01-15T03:13:54.911Z,2.74
2019-01-15T03:13:59.112Z,2.74
2019-01-15T03:14:03.468Z,2.74
2019-01-15T03:14:07.775Z,2.74
2019-01-15T03:14:12.095Z,2.74
2019-01-15T03:14:16.393Z,2.72
2019-01-15T03:14:20.626Z,2.73
2019-01-15T03:14:24.753Z,2.73
2019-01-15T03:14:29.069Z,2.73
2019-01-15T03:14:33.381Z,2.73
2019-01-15T03:14:37.722Z,2.73
2019-01-15T03:14:41.834Z,2.72
2019-01-15T03:14:46.128Z,2.71
2019-01-15T03:14:50.354Z,2.73
2019-01-15T03:14:54.556Z,2.73
2019-01-15T03:14:58.869Z,2.71
2019-01-15T03:15:03.211Z,2.73
2019-01-15T03:15:07.315Z,2.72
2019-01-15T03:15:11.485Z,2.73
2019-01-15T03:15:15.709Z,2.71
2019-01-15T03:15:20.006Z,2.71
2019-01-15T03:15:24.263Z,2.71
2019-01-15T03:15:28.488Z,2.74
2019-01-15T03:15:32.693Z,2.73
2019-01-15T03:15:36.907Z,2.71
2019-01-15T03:15:41.114Z,2.7
2019-01-15T03:15:45.233Z,2.69
2019-01-15T03:15:49.431Z,2.69
2019-01-15T03:15:53.650Z,2.68
2019-01-15T03:15:57.749Z,2.67
2019-01-15T03:16:01.992Z,2.68
2019-01-15T03:16:06.283Z,2.68
2019-01-15T03:16:10.392Z,2.68
2019-01-15T03:16:14.609Z,2.67
2019-01-15T03:16:18.829Z,2.67
2019-01-15T03:16:22.927Z,2.67
2019-01-15T03:16:27.130Z,2.65
2019-01-15T03:16:31.439Z,2.64
2019-01-15T03:16:35.744Z,2.65
2019-01-15T03:16:39.753Z,2.64
2019-01-15T03:16:44.048Z,2.62
2019-01-15T03:16:48.364Z,2.64
2019-01-15T03:16:52.577Z,2.63
2019-01-15T03:16:56.791Z,2.62
2019-01-15T03:17:01.095Z,2.63
2019-01-15T03:17:05.391Z,2.62
2019-01-15T03:17:09.697Z,2.62
2019-01-15T03:17:14.011Z,2.62
2019-01-15T03:17:18.320Z,2.61
2019-01-15T03:17:22.665Z,2.61
2019-01-15T03:17:26.899Z,2.6
2019-01-15T03:17:31.100Z,2.61
2019-01-15T03:17:35.398Z,2.61
2019-01-15T03:17:39.703Z,2.63
2019-01-15T03:17:43.803Z,2.64
2019-01-15T03:17:47.915Z,2.64
2019-01-15T03:17:52.027Z,2.66
2019-01-15T03:17:56.281Z,2.66
2019-01-15T03:18:00.582Z,2.66
2019-01-15T03:18:04.784Z,2.67
2019-01-15T03:18:08.991Z,2.67
2019-01-15T03:18:13.144Z,2.68
2019-01-15T03:18:17.348Z,2.68
2019-01-15T03:18:21.563Z,2.69
2019-01-15T03:18:25.863Z,2.69
2019-01-15T03:18:30.114Z,2.69
2019-01-15T03:18:34.325Z,2.68
2019-01-15T03:18:38.643Z,2.68
2019-01-15T03:18:42.748Z,2.7
2019-01-15T03:18:48.525Z,2.69
2019-01-15T03:18:52.833Z,2.69
2019-01-15T03:18:57.160Z,2.7
2019-01-15T03:19:01.460Z,2.69
2019-01-15T03:19:05.774Z,2.71
2019-01-15T03:19:10.078Z,2.71
2019-01-15T03:19:14.381Z,2.71
2019-01-15T03:19:18.585Z,2.71
2019-01-15T03:19:22.702Z,2.71
2019-01-15T03:19:27.018Z,2.72
2019-01-15T03:19:31.321Z,2.73
2019-01-15T03:19:35.641Z,2.73
2019-01-15T03:19:39.848Z,2.72
2019-01-15T03:19:44.051Z,2.73
2019-01-15T03:19:48.240Z,2.74
2019-01-15T03:19:52.447Z,2.74
2019-01-15T03:19:56.743Z,2.74
2019-01-15T03:20:01.045Z,2.74
2019-01-15T03:20:05.181Z,2.73
2019-01-15T03:20:09.405Z,2.76
2019-01-15T03:20:13.745Z,2.77
2019-01-15T03:20:17.945Z,2.77
2019-01-15T03:20:22.282Z,2.79
2019-01-15T03:20:26.414Z,2.79
2019-01-15T03:20:30.613Z,2.8
2019-01-15T03:20:34.902Z,2.81
2019-01-15T03:20:39.203Z,2.81
2019-01-15T03:20:43.500Z,2.81
2019-01-15T03:20:47.796Z,2.82
2019-01-15T03:20:52.000Z,2.82
2019-01-15T03:20:56.222Z,2.82
2019-01-15T03:21:00.631Z,2.84
2019-01-15T03:21:05.006Z,2.84
2019-01-15T03:21:09.205Z,2.85
2019-01-15T03:21:13.506Z,2.85
2019-01-15T03:21:17.766Z,2.85
2019-01-15T03:21:21.965Z,2.86
2019-01-15T03:21:26.277Z,2.87
2019-01-15T03:21:30.586Z,2.87
2019-01-15T03:21:34.892Z,2.87
2019-01-15T03:21:39.189Z,2.87
2019-01-15T03:21:43.516Z,2.87
2019-01-15T03:21:47.738Z,2.87
2019-01-15T03:21:51.872Z,2.87
2019-01-15T03:21:56.090Z,2.86
2019-01-15T03:22:00.393Z,2.88
2019-01-15T03:22:04.591Z,2.87
2019-01-15T03:22:08.803Z,2.87
2019-01-15T03:22:12.922Z,2.88
2019-01-15T03:22:17.226Z,2.88
2019-01-15T03:22:21.437Z,2.88
2019-01-15T03:22:25.660Z,2.89
2019-01-15T03:22:29.965Z,2.89
2019-01-15T03:22:34.276Z,2.89
2019-01-15T03:22:38.481Z,2.88
2019-01-15T03:22:42.603Z,2.9
2019-01-15T03:22:46.812Z,2.9
2019-01-15T03:22:51.119Z,2.89
2019-01-15T03:22:55.388Z,2.89
2019-01-15T03:22:59.642Z,2.89
2019-01-15T03:23:04.045Z,2.9
2019-01-15T03:23:08.157Z,2.9
2019-01-15T03:23:12.463Z,2.91
2019-01-15T03:23:16.815Z,2.91
2019-01-15T03:23:21.111Z,2.91
2019-01-15T03:23:25.384Z,2.9
2019-01-15T03:23:29.677Z,2.91
2019-01-15T03:23:34.019Z,2.91
2019-01-15T03:23:38.334Z,2.91
2019-01-15T03:23:42.632Z,2.9
2019-01-15T03:23:46.832Z,2.9
2019-01-15T03:23:51.124Z,2.89
2019-01-15T03:23:55.425Z,2.9
2019-01-15T03:23:59.722Z,2.89
2019-01-15T03:24:04.031Z,2.9
2019-01-15T03:24:08.233Z,2.9
2019-01-15T03:24:12.534Z,2.9
2019-01-15T03:24:16.851Z,2.9
2019-01-15T03:24:20.974Z,2.91
2019-01-15T03:24:25.316Z,2.91
2019-01-15T03:24:29.619Z,2.91
2019-01-15T03:24:33.887Z,2.91
2019-01-15T03:24:38.115Z,2.91
2019-01-15T03:24:42.327Z,2.91
2019-01-15T03:24:46.623Z,2.9
2019-01-15T03:24:50.926Z,2.9
2019-01-15T03:24:55.218Z,2.89
2019-01-15T03:24:59.533Z,2.9
2019-01-15T03:25:03.733Z,2.91
2019-01-15T03:25:08.031Z,2.9
2019-01-15T03:25:12.331Z,2.9
2019-01-15T03:25:16.248Z,2.89
2019-01-15T03:25:20.541Z,2.89
2019-01-15T03:25:24.756Z,2.89
2019-01-15T03:25:28.962Z,2.9
2019-01-15T03:25:33.272Z,2.89
2019-01-15T03:25:37.379Z,2.89
2019-01-15T03:25:41.593Z,2.89
2019-01-15T03:25:45.905Z,2.89
2019-01-15T03:25:50.118Z,2.9
2019-01-15T03:25:54.127Z,2.91
2019-01-15T03:25:58.448Z,2.91
2019-01-15T03:26:02.851Z,2.9
2019-01-15T03:26:07.094Z,2.9
2019-01-15T03:26:11.199Z,2.9
2019-01-15T03:26:15.434Z,2.91
2019-01-15T03:26:19.772Z,2.88
2019-01-15T03:26:23.987Z,2.9
2019-01-15T03:26:28.095Z,2.88
2019-01-15T03:26:32.412Z,2.88
2019-01-15T03:26:36.626Z,2.88
2019-01-15T03:26:40.949Z,2.88
2019-01-15T03:26:45.163Z,2.88
2019-01-15T03:26:49.482Z,2.87
2019-01-15T03:26:53.798Z,2.87
2019-01-15T03:26:58.024Z,2.87
2019-01-15T03:27:02.352Z,2.87
2019-01-15T03:27:06.564Z,2.86
2019-01-15T03:27:10.865Z,2.87
2019-01-15T03:27:15.158Z,2.87
2019-01-15T03:27:19.405Z,2.86
2019-01-15T03:27:23.626Z,2.87
2019-01-15T03:27:27.925Z,2.87
2019-01-15T03:27:32.163Z,2.86
2019-01-15T03:27:36.522Z,2.87
2019-01-15T03:27:40.719Z,2.86
2019-01-15T03:27:44.829Z,2.86
2019-01-15T03:27:48.936Z,2.88
2019-01-15T03:27:53.162Z,2.87
2019-01-15T03:27:57.377Z,2.88
2019-01-15T03:28:01.592Z,2.87
2019-01-15T03:28:05.899Z,2.88
2019-01-15T03:28:10.212Z,2.88
2019-01-15T03:28:14.417Z,2.86
2019-01-15T03:28:18.721Z,2.87
2019-01-15T03:28:23.038Z,2.88
2019-01-15T03:28:27.248Z,2.88
2019-01-15T03:28:31.443Z,2.88
2019-01-15T03:28:35.749Z,2.89
2019-01-15T03:28:39.851Z,2.88
2019-01-15T03:28:44.147Z,2.88
2019-01-15T03:28:48.449Z,2.89
2019-01-15T03:28:52.739Z,2.88
2019-01-15T03:28:57.030Z,2.88
2019-01-15T03:29:01.347Z,2.88
2019-01-15T03:29:05.646Z,2.87
2019-01-15T03:29:09.946Z,2.88
2019-01-15T03:29:14.280Z,2.88
2019-01-15T03:29:18.475Z,2.88
2019-01-15T03:29:22.796Z,2.88
2019-01-15T03:29:27.115Z,2.87
2019-01-15T03:29:31.406Z,2.87
2019-01-15T03:29:35.711Z,2.88
2019-01-15T03:29:39.849Z,2.87
2019-01-15T03:29:44.157Z,2.87
2019-01-15T03:29:48.463Z,2.89
2019-01-15T03:29:52.757Z,2.89
2019-01-15T03:29:57.052Z,2.89
2019-01-15T03:30:01.356Z,2.88
2019-01-15T03:30:05.663Z,2.89
2019-01-15T03:30:09.989Z,2.88
2019-01-15T03:30:14.301Z,2.89
2019-01-15T03:30:18.623Z,2.88
2019-01-15T03:30:22.936Z,2.89
2019-01-15T03:30:27.341Z,2.89
2019-01-15T03:30:31.568Z,2.9
2019-01-15T03:30:35.984Z,2.89
2019-01-15T03:30:40.227Z,2.89
2019-01-15T03:30:44.636Z,2.9
2019-01-15T03:30:48.964Z,2.89
2019-01-15T03:30:53.320Z,2.87
2019-01-15T03:30:57.650Z,2.87
2019-01-15T03:31:02.017Z,2.86
2019-01-15T03:31:06.322Z,2.86
2019-01-15T03:31:10.649Z,2.84
2019-01-15T03:31:14.979Z,2.85
2019-01-15T03:31:19.370Z,2.84
2019-01-15T03:31:23.757Z,2.84
2019-01-15T03:31:28.103Z,2.85
2019-01-15T03:31:32.452Z,2.82
2019-01-15T03:31:36.792Z,2.83
2019-01-15T03:31:41.066Z,2.83
2019-01-15T03:31:45.312Z,2.82
2019-01-15T03:31:49.695Z,2.83
2019-01-15T03:31:54.068Z,2.83
2019-01-15T03:31:58.392Z,2.83
2019-01-15T03:32:02.686Z,2.83
2019-01-15T03:32:06.935Z,2.83
2019-01-15T03:32:11.333Z,2.82
2019-01-15T03:32:15.684Z,2.81
2019-01-15T03:32:20.038Z,2.8
2019-01-15T03:32:24.367Z,2.81
2019-01-15T03:32:28.698Z,2.8
2019-01-15T03:32:33.033Z,2.8
2019-01-15T03:32:37.399Z,2.8
2019-01-15T03:32:41.724Z,2.81
2019-01-15T03:32:46.068Z,2.8
2019-01-15T03:32:50.529Z,2.8
2019-01-15T03:32:55.071Z,2.81
2019-01-15T03:32:59.407Z,2.8
2019-01-15T03:33:03.780Z,2.81
2019-01-15T03:33:08.044Z,2.8
2019-01-15T03:33:12.387Z,2.8
2019-01-15T03:33:16.971Z,2.81
2019-01-15T03:33:21.373Z,2.81
2019-01-15T03:33:25.737Z,2.82
2019-01-15T03:33:30.035Z,2.81
2019-01-15T03:33:34.236Z,2.82
2019-01-15T03:33:38.535Z,2.82
2019-01-15T03:33:42.844Z,2.82
2019-01-15T03:33:47.047Z,2.83
2019-01-15T03:33:51.357Z,2.82
2019-01-15T03:33:55.652Z,2.83
2019-01-15T03:33:59.850Z,2.83
2019-01-15T03:34:04.096Z,2.83
2019-01-15T03:34:08.384Z,2.83
2019-01-15T03:34:12.589Z,2.83
2019-01-15T03:34:16.894Z,2.84
2019-01-15T03:34:21.211Z,2.83
2019-01-15T03:34:25.514Z,2.84
2019-01-15T03:34:29.720Z,2.84
2019-01-15T03:34:34.016Z,2.84
2019-01-15T03:34:38.323Z,2.83
2019-01-15T03:34:42.638Z,2.83
2019-01-15T03:34:46.933Z,2.84
2019-01-15T03:34:51.246Z,2.82
2019-01-15T03:34:55.538Z,2.83
2019-01-15T03:34:59.761Z,2.83
2019-01-15T03:35:04.134Z,2.84
2019-01-15T03:35:08.336Z,2.84
2019-01-15T03:35:12.632Z,2.84
2019-01-15T03:35:16.928Z,2.84
2019-01-15T03:35:21.146Z,2.84
2019-01-15T03:35:25.447Z,2.83
2019-01-15T03:35:29.753Z,2.83
2019-01-15T03:35:34.052Z,2.83
2019-01-15T03:35:38.347Z,2.84
2019-01-15T03:35:42.647Z,2.84
2019-01-15T03:35:46.966Z,2.84
2019-01-15T03:35:51.065Z,2.84
2019-01-15T03:35:55.269Z,2.83
2019-01-15T03:35:59.477Z,2.83
2019-01-15T03:36:03.785Z,2.84
2019-01-15T03:36:08.080Z,2.81
2019-01-15T03:36:12.389Z,2.81
2019-01-15T03:36:16.689Z,2.81
2019-01-15T03:36:20.995Z,2.82
2019-01-15T03:36:25.303Z,2.82
2019-01-15T03:36:29.604Z,2.82
2019-01-15T03:36:33.904Z,2.81
2019-01-15T03:36:39.949Z,2.81
2019-01-15T03:36:44.180Z,2.82
2019-01-15T03:36:48.492Z,2.82
2019-01-15T03:36:52.843Z,2.82
2019-01-15T03:36:57.043Z,2.83
2019-01-15T03:37:01.341Z,2.82
2019-01-15T03:37:05.842Z,2.83
2019-01-15T03:37:10.142Z,2.83
2019-01-15T03:37:14.453Z,2.83
2019-01-15T03:37:18.764Z,2.83
2019-01-15T03:37:22.955Z,2.84
2019-01-15T03:37:27.062Z,2.83
2019-01-15T03:37:31.368Z,2.83
2019-01-15T03:37:35.568Z,2.83
2019-01-15T03:37:39.866Z,2.83
2019-01-15T03:37:44.179Z,2.84
2019-01-15T03:37:48.306Z,2.84
2019-01-15T03:37:52.619Z,2.84
2019-01-15T03:37:56.923Z,2.84
2019-01-15T03:38:01.134Z,2.83
2019-01-15T03:38:05.339Z,2.84
2019-01-15T03:38:09.546Z,2.84
2019-01-15T03:38:13.845Z,2.85
2019-01-15T03:38:18.133Z,2.83
2019-01-15T03:38:22.349Z,2.83
2019-01-15T03:38:26.647Z,2.84
2019-01-15T03:38:30.953Z,2.83
2019-01-15T03:38:35.158Z,2.83
2019-01-15T03:38:39.366Z,2.82
2019-01-15T03:38:43.566Z,2.82
2019-01-15T03:38:47.865Z,2.83
2019-01-15T03:38:52.067Z,2.82
2019-01-15T03:38:56.394Z,2.82
2019-01-15T03:39:00.599Z,2.83
2019-01-15T03:39:04.797Z,2.83
2019-01-15T03:39:08.992Z,2.83
2019-01-15T03:39:13.292Z,2.84
2019-01-15T03:39:17.597Z,2.83
2019-01-15T03:39:21.894Z,2.84
2019-01-15T03:39:26.089Z,2.83
2019-01-15T03:39:30.315Z,2.83
2019-01-15T03:39:34.666Z,2.82
2019-01-15T03:39:38.959Z,2.82
2019-01-15T03:39:43.254Z,2.83
2019-01-15T03:39:47.605Z,2.82
2019-01-15T03:39:51.916Z,2.83
2019-01-15T03:39:56.215Z,2.83
2019-01-15T03:40:00.508Z,2.83
2019-01-15T03:40:05.027Z,2.84
2019-01-15T03:40:09.333Z,2.82
2019-01-15T03:40:13.618Z,2.83
2019-01-15T03:40:17.820Z,2.82
2019-01-15T03:40:22.067Z,2.82
2019-01-15T03:40:26.210Z,2.82
2019-01-15T03:40:30.538Z,2.82
2019-01-15T03:40:34.841Z,2.81
2019-01-15T03:40:38.948Z,2.81
2019-01-15T03:40:43.255Z,2.82
2019-01-15T03:40:47.558Z,2.82
2019-01-15T03:40:51.858Z,2.81
2019-01-15T03:40:56.152Z,2.81
2019-01-15T03:41:00.441Z,2.81
2019-01-15T03:41:04.969Z,2.81
2019-01-15T03:41:09.172Z,2.81
2019-01-15T03:41:13.482Z,2.81
2019-01-15T03:41:17.785Z,2.81
2019-01-15T03:41:22.097Z,2.79
2019-01-15T03:41:26.302Z,2.8
2019-01-15T03:41:30.647Z,2.79
2019-01-15T03:41:34.950Z,2.8
2019-01-15T03:41:39.258Z,2.79
2019-01-15T03:41:43.553Z,2.79
2019-01-15T03:41:47.765Z,2.79
2019-01-15T03:41:52.101Z,2.78
2019-01-15T03:41:56.418Z,2.79
2019-01-15T03:42:00.718Z,2.77
2019-01-15T03:42:05.122Z,2.78
2019-01-15T03:42:09.420Z,2.77
2019-01-15T03:42:13.714Z,2.77
2019-01-15T03:42:18.018Z,2.76
2019-01-15T03:42:22.121Z,2.76
2019-01-15T03:42:26.434Z,2.76
2019-01-15T03:42:30.732Z,2.76
2019-01-15T03:42:34.942Z,2.77
2019-01-15T03:42:39.158Z,2.77
2019-01-15T03:42:43.358Z,2.76
2019-01-15T03:42:47.653Z,2.77
2019-01-15T03:42:51.975Z,2.76
2019-01-15T03:43:05.084Z,2.76
2019-01-15T03:43:09.384Z,2.76